Time;durP1;ratioP1;P1;durP2;ratioP2;P2;SDS_P1;SDS_P2;PMS_P1;PMS_P2;Temp;Humidity;BMP_temperature;BMP_pressure;BME280_temperature;BME280_humidity;BME280_pressure;Samples;Min_cycle;Max_cycle;Signal;HPM_P1;HPM_P2
2020/12/20 00:01:14;;;;;;;;;;;;;;;18.69;74.83;101337.16;4984352;28;1355;-68
2020/12/20 00:04:24;;;;;;;;;;;;;;;18.69;74.58;101331.88;4972655;28;2072;-69
2020/12/20 00:06:50;;;;;;;;;;;;;;;18.68;74.85;101340.72;4989372;28;1406;-68
2020/12/20 00:09:18;;;;;;;;;;;;;;;18.69;74.69;101333.66;4990058;28;719;-68
2020/12/20 00:11:46;;;;;;;;;;;;;;;18.74;74.73;101332.50;4987901;28;1370;-70
2020/12/20 00:14:28;;;;;;;;;;;;;;;18.76;74.40;101322.72;4989020;28;1638;-68
2020/12/20 00:16:54;;;;;;;;;;;;;;;18.71;74.97;101324.75;4989080;28;1323;-68
2020/12/20 00:19:20;;;;;;;;;;;;;;;18.68;74.43;101324.03;4990503;28;1174;-69
2020/12/20 00:21:52;;;;;;;;;;;;;;;18.68;74.51;101308.19;4993316;28;1272;-69
2020/12/20 00:24:18;;;;;;;;;;;;;;;18.66;74.38;101321.47;4993181;28;1972;-69
2020/12/20 00:26:44;;;;;;;;;;;;;;;18.64;74.47;101323.31;4993243;28;1292;-69
2020/12/20 00:29:10;;;;;;;;;;;;;;;18.65;74.25;101313.63;4991447;28;1477;-70
2020/12/20 00:31:37;;;;;;;;;;;;;;;18.64;74.25;101320.66;4992942;28;1367;-68
2020/12/20 00:34:05;;;;;;;;;;;;;;;18.62;74.13;101311.13;4991962;28;867;-69
2020/12/20 00:36:32;;;;;;;;;;;;;;;18.62;74.32;101311.13;4990392;28;1426;-69
2020/12/20 00:39:06;;;;;;;;;;;;;;;18.61;74.23;101304.13;4979005;28;861;-70
2020/12/20 00:41:32;;;;;;;;;;;;;;;18.61;74.03;101301.50;4992926;28;1280;-68
2020/12/20 00:43:59;;;;;;;;;;;;;;;18.60;74.39;101305.94;4992175;28;1914;-70
2020/12/20 00:46:25;;;;;;;;;;;;;;;18.60;73.96;101305.94;4992177;28;1296;-70
2020/12/20 00:48:51;;;;;;;;;;;;;;;18.59;73.92;101312.13;4992282;28;798;-70
2020/12/20 00:51:20;;;;;;;;;;;;;;;18.58;74.13;101307.78;4992586;28;1272;-70
2020/12/20 00:53:50;;;;;;;;;;;;;;;18.59;73.86;101306.00;4992386;28;810;-70
2020/12/20 00:56:16;;;;;;;;;;;;;;;18.58;73.87;101301.63;4974311;28;1256;-70
2020/12/20 00:58:42;;;;;;;;;;;;;;;18.57;74.02;101298.16;4992311;28;834;-70
2020/12/20 01:01:09;;;;;;;;;;;;;;;18.57;73.81;101302.59;4992590;28;1395;-69
2020/12/20 01:03:36;;;;;;;;;;;;;;;18.56;73.79;101304.38;4997474;28;1969;-70
2020/12/20 01:06:03;;;;;;;;;;;;;;;18.56;73.91;101296.44;5012108;28;1312;-71
2020/12/20 01:08:29;;;;;;;;;;;;;;;18.56;73.94;101304.38;5011629;28;826;-69
2020/12/20 01:10:55;;;;;;;;;;;;;;;18.56;73.64;101296.44;5011505;28;1343;-70
2020/12/20 01:13:22;;;;;;;;;;;;;;;18.54;73.59;101299.13;4994016;28;1054;-69
2020/12/20 01:15:49;;;;;;;;;;;;;;;18.55;73.93;101292.09;5011390;28;1520;-69
2020/12/20 01:18:15;;;;;;;;;;;;;;;18.53;73.79;101286.91;4994051;28;1309;-69
2020/12/20 01:20:41;;;;;;;;;;;;;;;18.55;73.93;101297.38;5011578;28;791;-70
2020/12/20 01:23:08;;;;;;;;;;;;;;;18.53;73.76;101293.94;5011624;28;1241;-69
2020/12/20 01:25:34;;;;;;;;;;;;;;;18.53;73.70;101289.53;5011740;28;1910;-69
2020/12/20 01:28:09;;;;;;;;;;;;;;;18.53;73.70;101289.53;5011398;28;1288;-71
2020/12/20 01:30:35;;;;;;;;;;;;;;;18.53;73.79;101300.09;5010418;28;1047;-69
2020/12/20 01:33:14;;;;;;;;;;;;;;;18.52;73.69;101290.44;4979130;28;1300;-69
2020/12/20 01:35:54;;;;;;;;;;;;;;;18.53;73.75;101286.03;4993211;28;1461;-72
2020/12/20 01:38:21;;;;;;;;;;;;;;;18.52;73.73;101285.19;4993439;28;1099;-70
2020/12/20 01:40:55;;;;;;;;;;;;;;;18.52;73.30;101282.53;5011061;28;1056;-69
2020/12/20 01:43:43;;;;;;;;;;;;;;;18.51;73.47;101286.09;5010523;28;834;-70
2020/12/20 01:46:12;;;;;;;;;;;;;;;18.51;73.46;101280.00;5011444;28;1308;-70
2020/12/20 01:48:41;;;;;;;;;;;;;;;18.51;73.22;101286.09;5011001;28;814;-72
2020/12/20 01:51:26;;;;;;;;;;;;;;;18.50;73.42;101276.50;5011105;28;1272;-69
2020/12/20 01:54:10;;;;;;;;;;;;;;;18.50;73.37;101284.41;4994172;28;1492;-64
2020/12/20 01:56:40;;;;;;;;;;;;;;;18.50;73.21;101283.53;5011122;22;1652;-63
2020/12/20 01:59:07;;;;;;;;;;;;;;;18.50;73.31;101288.81;5010995;28;1043;-65
2020/12/20 02:01:33;;;;;;;;;;;;;;;18.49;73.19;101285.31;5005109;28;1275;-65
2020/12/20 02:04:08;;;;;;;;;;;;;;;18.49;73.21;101287.09;4989377;28;2538;-65
2020/12/20 02:06:34;;;;;;;;;;;;;;;18.50;73.37;101288.81;4989724;28;1264;-65
2020/12/20 02:09:03;;;;;;;;;;;;;;;18.48;73.38;101293.28;4973590;28;1649;-66
2020/12/20 02:11:30;;;;;;;;;;;;;;;18.49;73.43;101285.31;4991088;28;1273;-65
2020/12/20 02:13:56;;;;;;;;;;;;;;;18.47;73.17;101279.25;4991684;28;801;-66
2020/12/20 02:16:22;;;;;;;;;;;;;;;18.48;73.03;101288.03;4989462;28;1351;-65
2020/12/20 02:18:49;;;;;;;;;;;;;;;18.47;73.23;101283.66;4990889;28;842;-64
2020/12/20 02:21:21;;;;;;;;;;;;;;;18.48;73.00;101280.09;4991095;28;1427;-66
2020/12/20 02:23:54;;;;;;;;;;;;;;;18.46;73.11;101282.78;4989313;28;1902;-64
2020/12/20 02:26:22;;;;;;;;;;;;;;;18.47;73.20;101283.66;4991133;28;1252;-66
2020/12/20 02:28:58;;;;;;;;;;;;;;;;;;;;;
2020/12/20 02:31:26;;;;;;;;;;;;;;;18.47;72.95;101288.94;4990222;28;1208;-65
2020/12/20 02:33:52;;;;;;;;;;;;;;;18.47;72.93;101288.94;4975906;28;1178;-63
2020/12/20 02:36:19;;;;;;;;;;;;;;;18.46;73.16;101284.56;4990825;28;1284;-65
2020/12/20 02:38:47;;;;;;;;;;;;;;;18.46;72.94;101281.94;4989232;28;1244;-65
2020/12/20 02:41:15;;;;;;;;;;;;;;;18.45;73.25;101294.25;4989912;28;1343;-64
2020/12/20 02:43:42;;;;;;;;;;;;;;;18.45;73.12;101282.88;4990068;28;813;-65
2020/12/20 02:46:08;;;;;;;;;;;;;;;18.45;73.09;101285.53;4990224;28;1907;-65
2020/12/20 02:48:35;;;;;;;;;;;;;;;18.44;73.28;101282.03;4990045;28;888;-64
2020/12/20 02:51:01;;;;;;;;;;;;;;;18.46;72.97;101282.78;4989718;28;1300;-64
2020/12/20 02:53:27;;;;;;;;;;;;;;;18.44;73.08;101281.16;4989037;28;1272;-64
2020/12/20 02:55:53;;;;;;;;;;;;;;;18.44;72.87;101273.25;4990344;28;1256;-65
2020/12/20 02:58:19;;;;;;;;;;;;;;;18.45;73.22;101269.69;4990638;28;1500;-64
2020/12/20 03:00:46;;;;;;;;;;;;;;;18.44;72.81;101273.25;4990278;28;941;-65
2020/12/20 03:03:13;;;;;;;;;;;;;;;18.43;73.08;101271.53;4990171;28;1316;-65
2020/12/20 03:05:39;;;;;;;;;;;;;;;18.42;72.99;101262.75;4990046;28;2012;-69
2020/12/20 03:08:05;;;;;;;;;;;;;;;18.42;73.21;101257.47;4990119;28;1162;-69
2020/12/20 03:10:31;;;;;;;;;;;;;;;18.44;73.01;101257.41;4989842;28;1143;-70
2020/12/20 03:13:08;;;;;;;;;;;;;;;18.42;72.83;101257.47;4989858;28;1300;-70
2020/12/20 03:15:37;;;;;;;;;;;;;;;18.41;72.82;101258.44;4989778;28;1136;-70
2020/12/20 03:18:03;;;;;;;;;;;;;;;18.41;72.84;101253.16;4989666;28;1311;-69
2020/12/20 03:20:29;;;;;;;;;;;;;;;18.42;72.84;101262.75;4989939;28;1067;-69
2020/12/20 03:22:58;;;;;;;;;;;;;;;18.42;72.77;101254.00;4989775;28;1225;-69
2020/12/20 03:25:25;;;;;;;;;;;;;;;18.41;72.81;101245.25;4989613;28;1934;-70
2020/12/20 03:27:52;;;;;;;;;;;;;;;18.42;72.82;101243.47;4990167;28;1307;-69
2020/12/20 03:30:19;;;;;;;;;;;;;;;18.41;72.90;101247.88;4989655;28;849;-70
2020/12/20 03:32:45;;;;;;;;;;;;;;;18.41;72.74;101250.50;4989779;28;1339;-70
2020/12/20 03:35:11;;;;;;;;;;;;;;;18.40;72.87;101253.22;4987669;28;771;-70
2020/12/20 03:37:37;;;;;;;;;;;;;;;18.40;72.62;101250.56;4989844;28;1394;-70
2020/12/20 03:40:03;;;;;;;;;;;;;;;18.40;72.75;101258.50;4989681;28;1033;-70
2020/12/20 03:42:30;;;;;;;;;;;;;;;18.40;72.77;101259.34;4988500;28;1284;-69
2020/12/20 03:44:56;;;;;;;;;;;;;;;18.40;72.66;101255.84;4989607;28;1898;-69
2020/12/20 03:47:25;;;;;;;;;;;;;;;18.39;72.68;101259.44;4989830;28;1370;-69
2020/12/20 03:49:51;;;;;;;;;;;;;;;18.39;72.68;101254.16;4989365;28;1029;-68
2020/12/20 03:52:17;;;;;;;;;;;;;;;18.38;72.51;101255.94;4989187;28;1268;-69
2020/12/20 03:54:43;;;;;;;;;;;;;;;18.38;72.45;101265.63;4989118;28;1189;-71
2020/12/20 03:57:10;;;;;;;;;;;;;;;18.38;72.77;101263.00;4987946;28;1410;-70
2020/12/20 03:59:39;;;;;;;;;;;;;;;18.38;72.49;101263.84;4989277;28;1131;-69
2020/12/20 04:02:06;;;;;;;;;;;;;;;18.38;72.55;101268.25;4989515;28;1355;-72
2020/12/20 04:04:35;;;;;;;;;;;;;;;18.38;72.82;101268.25;4972103;28;1973;-70
2020/12/20 04:07:01;;;;;;;;;;;;;;;18.38;72.61;101274.41;4988984;28;1252;-70
2020/12/20 04:09:27;;;;;;;;;;;;;;;18.37;72.56;101270.03;4989366;28;795;-70
2020/12/20 04:11:53;;;;;;;;;;;;;;;18.37;72.47;101271.81;4989435;28;1268;-70
2020/12/20 04:14:19;;;;;;;;;;;;;;;18.36;72.42;101265.69;4987831;28;1202;-70
2020/12/20 04:17:12;;;;;;;;;;;;;;;18.37;72.50;101266.53;4987901;28;1273;-70
2020/12/20 04:19:40;;;;;;;;;;;;;;;18.37;72.24;101261.28;4976955;28;1124;-71
2020/12/20 04:22:07;;;;;;;;;;;;;;;18.35;72.62;101263.13;4989201;28;1389;-70
2020/12/20 04:24:35;;;;;;;;;;;;;;;18.35;72.40;101255.22;4988828;28;1972;-69
2020/12/20 04:27:04;;;;;;;;;;;;;;;18.34;72.38;101257.00;4989452;28;1248;-69
2020/12/20 04:29:30;;;;;;;;;;;;;;;18.35;72.47;101260.50;4989406;28;862;-68
2020/12/20 04:32:03;;;;;;;;;;;;;;;18.34;72.52;101261.41;4989172;28;1284;-70
2020/12/20 04:34:29;;;;;;;;;;;;;;;18.35;72.48;101265.78;4989066;28;791;-69
2020/12/20 04:37:18;;;;;;;;;;;;;;;18.34;72.33;101264.06;4989264;28;1181;-69
2020/12/20 04:39:53;;;;;;;;;;;;;;;18.33;72.25;101267.63;4989292;28;1183;-70
2020/12/20 04:42:31;;;;;;;;;;;;;;;18.31;72.09;101265.06;4988799;28;1359;-70
2020/12/20 04:44:57;;;;;;;;;;;;;;;18.32;72.15;101266.78;4988700;28;1976;-71
2020/12/20 04:47:42;;;;;;;;;;;;;;;18.31;72.36;101262.41;4989029;28;1312;-66
2020/12/20 04:50:14;;;;;;;;;;;;;;;18.31;72.18;101261.56;4989161;28;1085;-65
2020/12/20 04:52:53;;;;;;;;;;;;;;;18.33;72.19;101270.28;5050437;22;1718;-66
2020/12/20 04:55:45;;;;;;;;;;;;;;;18.32;72.23;101265.91;5027632;28;819;-65
2020/12/20 04:58:11;;;;;;;;;;;;;;;18.30;72.10;101258.06;5009673;28;1386;-66
2020/12/20 05:00:57;;;;;;;;;;;;;;;18.31;72.06;101256.28;5007912;28;1057;-66
2020/12/20 05:03:26;;;;;;;;;;;;;;;18.30;72.09;101252.78;4990506;28;1491;-66
2020/12/20 05:05:52;;;;;;;;;;;;;;;18.29;72.09;101252.88;5008756;28;1977;-66
2020/12/20 05:08:33;;;;;;;;;;;;;;;18.30;72.13;101250.16;5011003;28;1118;-64
2020/12/20 05:13:41;;;;;;;;;;;;;;;18.29;72.27;101259.00;5026322;28;1470;-64
2020/12/20 05:16:32;;;;;;;;;;;;;;;18.30;72.32;101259.88;5014267;28;1359;-67
2020/12/20 05:19:00;;;;;;;;;;;;;;;18.28;72.20;101254.66;5031888;28;849;-63
2020/12/20 05:21:28;;;;;;;;;;;;;;;18.29;71.94;101258.16;5031788;28;1276;-63
2020/12/20 05:23:54;;;;;;;;;;;;;;;18.28;71.87;101254.66;5013756;28;835;-64
2020/12/20 05:26:38;;;;;;;;;;;;;;;18.28;72.17;101261.69;5013983;28;1914;-63
2020/12/20 05:29:09;;;;;;;;;;;;;;;18.27;71.95;101258.19;4997086;28;1277;-64
2020/12/20 05:31:35;;;;;;;;;;;;;;;18.27;72.02;101260.00;5031389;28;1276;-64
2020/12/20 05:34:02;;;;;;;;;;;;;;;18.27;71.96;101265.28;5013455;28;1415;-64
2020/12/20 05:36:28;;;;;;;;;;;;;;;18.27;72.02;101267.94;5031063;28;1347;-64
2020/12/20 05:39:11;;;;;;;;;;;;;;;18.27;71.85;101273.19;5031438;28;822;-64
2020/12/20 05:41:42;;;;;;;;;;;;;;;18.26;71.83;101274.13;5031193;28;1248;-64
2020/12/20 05:44:19;;;;;;;;;;;;;;;18.26;71.67;101264.44;5013182;28;2008;-64
2020/12/20 05:46:46;;;;;;;;;;;;;;;18.26;71.85;101260.94;5012734;28;1296;-64
2020/12/20 05:49:16;;;;;;;;;;;;;;;18.25;71.92;101261.84;5031143;28;772;-64
2020/12/20 05:51:59;;;;;;;;;;;;;;;18.25;71.92;101270.63;5030649;28;1280;-64
2020/12/20 05:54:29;;;;;;;;;;;;;;;18.24;71.78;101260.97;5013206;28;794;-64
2020/12/20 05:57:14;;;;;;;;;;;;;;;18.25;71.74;101265.34;5030884;28;1354;-64
2020/12/20 05:59:42;;;;;;;;;;;;;;;18.24;71.70;101263.63;5030685;28;818;-63
2020/12/20 06:02:08;;;;;;;;;;;;;;;18.24;71.89;101260.16;5030383;28;1315;-64
2020/12/20 06:04:35;;;;;;;;;;;;;;;18.24;71.73;101255.72;5030429;28;1982;-64
2020/12/20 06:07:03;;;;;;;;;;;;;;;18.22;71.74;101252.31;5012792;28;1249;-63
2020/12/20 06:09:29;;;;;;;;;;;;;;;18.22;71.73;101260.22;5030532;28;779;-65
2020/12/20 06:11:59;;;;;;;;;;;;;;;18.24;71.73;101257.53;5030242;28;1565;-65
2020/12/20 06:14:26;;;;;;;;;;;;;;;18.23;71.86;101255.78;5030244;28;775;-65
2020/12/20 06:17:12;;;;;;;;;;;;;;;18.24;71.79;101265.44;5030324;28;1378;-64
2020/12/20 06:19:45;;;;;;;;;;;;;;;18.22;71.65;101256.72;5030143;28;810;-64
2020/12/20 06:22:17;;;;;;;;;;;;;;;18.21;71.74;101258.50;5012327;28;1307;-63
2020/12/20 06:24:45;;;;;;;;;;;;;;;18.22;71.57;101267.25;5030564;28;1977;-64
2020/12/20 06:27:13;;;;;;;;;;;;;;;18.22;71.82;101262.00;5030563;28;1288;-65
2020/12/20 06:29:42;;;;;;;;;;;;;;;18.22;72.03;101268.13;5030046;28;1076;-64
2020/12/20 06:32:10;;;;;;;;;;;;;;;18.22;71.88;101269.91;5029887;28;1397;-64
2020/12/20 06:34:38;;;;;;;;;;;;;;;18.22;71.77;101267.25;5030165;28;841;-65
2020/12/20 06:37:05;;;;;;;;;;;;;;;18.21;71.83;101282.22;5030046;28;1382;-64
2020/12/20 06:39:41;;;;;;;;;;;;;;;18.21;71.67;101278.75;5030005;28;830;-65
2020/12/20 06:42:07;;;;;;;;;;;;;;;18.21;71.90;101282.22;5012511;28;1284;-65
2020/12/20 06:44:33;;;;;;;;;;;;;;;18.20;71.86;101285.81;5030099;28;1910;-65
2020/12/20 06:46:59;;;;;;;;;;;;;;;18.21;71.84;101297.22;5029797;28;1303;-65
2020/12/20 06:49:42;;;;;;;;;;;;;;;18.16;72.06;101293.91;5029544;28;771;-66
2020/12/20 06:52:18;;;;;;;;;;;;;;;18.19;71.86;101294.63;5012045;28;1440;-65
2020/12/20 06:55:05;;;;;;;;;;;;;;;18.20;71.76;101301.63;5029532;28;813;-65
2020/12/20 06:57:32;;;;;;;;;;;;;;;18.19;71.68;101305.19;5029929;28;1359;-64
2020/12/20 06:59:58;;;;;;;;;;;;;;;18.19;71.77;101307.81;5029838;28;794;-65
2020/12/20 07:02:46;;;;;;;;;;;;;;;18.30;71.81;101315.25;5029610;28;1363;-65
2020/12/20 07:05:31;;;;;;;;;;;;;;;18.30;71.89;101318.72;5028594;28;2233;-64
2020/12/20 07:08:16;;;;;;;;;;;;;;;18.25;71.83;101314.59;5010247;28;1452;-65
2020/12/20 07:10:44;;;;;;;;;;;;;;;18.23;72.10;101319.09;5010918;28;1545;-64
2020/12/20 07:13:11;;;;;;;;;;;;;;;18.24;72.19;101318.16;5029262;28;1534;-64
2020/12/20 07:15:43;;;;;;;;;;;;;;;18.23;72.00;101321.72;5028742;28;1469;-65
2020/12/20 07:18:10;;;;;;;;;;;;;;;18.25;72.12;101327.78;5009497;28;1288;-65
2020/12/20 07:20:36;;;;;;;;;;;;;;;18.23;72.15;101321.72;5026133;28;1509;-65
2020/12/20 07:23:16;;;;;;;;;;;;;;;18.25;72.30;101338.31;5009611;28;1375;-65
2020/12/20 07:26:02;;;;;;;;;;;;;;;18.25;72.33;101335.69;5011878;28;1914;-65
2020/12/20 07:28:29;;;;;;;;;;;;;;;18.26;72.33;101342.69;5010950;28;862;-65
2020/12/20 07:30:55;;;;;;;;;;;;;;;18.26;72.28;101340.03;5027854;28;1607;-65
2020/12/20 07:33:21;;;;;;;;;;;;;;;18.24;72.19;101345.38;5028117;28;933;-66
2020/12/20 07:35:47;;;;;;;;;;;;;;;18.24;72.09;101341.91;5009545;28;1584;-66
2020/12/20 07:38:14;;;;;;;;;;;;;;;18.24;72.12;101340.09;5027717;28;1221;-66
2020/12/20 07:40:41;;;;;;;;;;;;;;;18.24;72.04;101339.28;5027566;28;1484;-65
2020/12/20 07:43:07;;;;;;;;;;;;;;;18.23;71.95;101342.81;5027790;28;1213;-66
2020/12/20 07:45:34;;;;;;;;;;;;;;;18.24;71.92;101334.00;5026823;28;1979;-66
2020/12/20 07:48:00;;;;;;;;;;;;;;;18.24;71.98;101339.28;5010121;28;1265;-67
2020/12/20 07:50:27;;;;;;;;;;;;;;;18.25;72.14;101343.59;5009508;28;1592;-68
2020/12/20 07:52:53;;;;;;;;;;;;;;;18.24;71.96;101348.00;5027124;28;1256;-66
2020/12/20 07:55:19;;;;;;;;;;;;;;;18.23;71.99;101343.69;5027102;28;1571;-67
2020/12/20 07:57:47;;;;;;;;;;;;;;;18.23;71.88;101350.72;5009898;28;1366;-66
2020/12/20 08:00:13;;;;;;;;;;;;;;;18.24;72.18;101357.72;5009545;28;1549;-66
2020/12/20 08:02:40;;;;;;;;;;;;;;;18.29;72.25;101361.00;5028055;28;1312;-66
2020/12/20 08:05:06;;;;;;;;;;;;;;;18.32;71.62;101372.28;5027744;28;1969;-66
2020/12/20 08:07:32;;;;;;;;;;;;;;;18.26;71.58;101371.69;5009875;28;1307;-67
2020/12/20 08:09:59;;;;;;;;;;;;;;;18.23;71.58;101370.06;5009546;28;1418;-66
2020/12/20 08:12:25;;;;;;;;;;;;;;;18.21;71.50;101376.31;5027755;28;1672;-66
2020/12/20 08:15:05;;;;;;;;;;;;;;;18.21;71.41;101376.31;5027522;28;1576;-67
2020/12/20 08:17:31;;;;;;;;;;;;;;;18.19;71.25;101381.66;5028860;28;1316;-65
2020/12/20 08:20:01;;;;;;;;;;;;;;;18.18;71.28;101387.84;5028083;28;1524;-65
2020/12/20 08:22:28;;;;;;;;;;;;;;;18.17;71.18;101391.41;5028701;28;1386;-66
2020/12/20 08:24:56;;;;;;;;;;;;;;;18.17;71.15;101387.91;5027824;28;1914;-65
2020/12/20 08:27:31;;;;;;;;;;;;;;;18.16;71.00;101388.84;5010503;28;1410;-65
2020/12/20 08:29:58;;;;;;;;;;;;;;;18.16;71.16;101399.38;5027589;28;1524;-65
2020/12/20 08:32:40;;;;;;;;;;;;;;;18.15;71.24;101406.44;5028370;28;1399;-65
2020/12/20 08:35:14;;;;;;;;;;;;;;;18.15;71.12;101409.06;5027850;28;1591;-66
2020/12/20 08:37:42;;;;;;;;;;;;;;;18.15;71.01;101416.16;5028010;28;1296;-66
2020/12/20 08:40:09;;;;;;;;;;;;;;;18.14;71.08;101419.69;5027739;28;1611;-66
2020/12/20 08:42:35;;;;;;;;;;;;;;;18.13;70.85;101420.63;5030967;28;1386;-67
2020/12/20 08:45:09;;;;;;;;;;;;;;;18.14;70.96;101430.25;5012531;28;1930;-68
2020/12/20 08:47:36;;;;;;;;;;;;;;;18.14;70.72;101427.59;5031698;28;1418;-66
2020/12/20 08:50:02;;;;;;;;;;;;;;;18.13;70.76;101432.03;5031921;28;778;-66
2020/12/20 08:52:29;;;;;;;;;;;;;;;18.13;70.86;101433.78;5032006;28;1334;-66
2020/12/20 08:54:56;;;;;;;;;;;;;;;18.10;71.35;101439.19;5013825;28;1302;-67
2020/12/20 08:57:40;;;;;;;;;;;;;;;18.06;71.25;101449.03;5031771;28;1292;-68
2020/12/20 09:00:07;;;;;;;;;;;;;;;18.06;71.45;101450.78;5031788;28;873;-67
2020/12/20 09:02:33;;;;;;;;;;;;;;;18.04;71.56;101448.25;5031983;28;1398;-65
2020/12/20 09:05:06;;;;;;;;;;;;;;;18.15;71.51;101459.16;5031261;28;1914;-65
2020/12/20 09:07:32;;;;;;;;;;;;;;;18.12;71.51;101455.84;5031819;28;1335;-67
2020/12/20 09:10:06;;;;;;;;;;;;;;;18.12;71.51;101455.84;5031055;28;771;-67
2020/12/20 09:12:33;;;;;;;;;;;;;;;18.17;71.44;101459.97;5031322;28;1350;-66
2020/12/20 09:18:29;;;;;;;;;;;;;;;18.40;72.14;101461.59;5071171;22;1774;-65
2020/12/20 09:20:55;;;;;;;;;;;;;;;18.37;72.37;101472.28;5031193;28;1416;-64
2020/12/20 09:23:22;;;;;;;;;;;;;;;18.39;72.32;101471.28;5011596;28;1131;-65
2020/12/20 09:25:49;;;;;;;;;;;;;;;18.49;72.02;101477.91;5010115;28;1967;-68
2020/12/20 09:28:24;;;;;;;;;;;;;;;18.66;71.91;101477.16;4992751;28;1318;-63
2020/12/20 09:30:51;;;;;;;;;;;;;;;18.77;71.59;101480.16;5011242;28;775;-67
2020/12/20 09:33:25;;;;;;;;;;;;;;;18.77;71.68;101476.66;4993615;28;1323;-65
2020/12/20 09:35:59;;;;;;;;;;;;;;;18.65;72.15;101482.50;4993293;28;858;-65
2020/12/20 09:38:26;;;;;;;;;;;;;;;18.60;72.06;101482.72;4993541;28;1044;-67
2020/12/20 09:41:01;;;;;;;;;;;;;;;18.65;72.07;101478.09;5011138;28;818;-65
2020/12/20 09:43:27;;;;;;;;;;;;;;;18.65;72.24;101472.81;5011355;28;996;-65
2020/12/20 09:45:54;;;;;;;;;;;;;;;18.59;71.85;101467.81;5010316;28;1976;-68
2020/12/20 09:48:20;;;;;;;;;;;;;;;18.59;71.78;101475.72;5010269;28;1505;-66
2020/12/20 09:50:46;;;;;;;;;;;;;;;18.65;71.23;101478.09;5010064;28;1665;-66
2020/12/20 09:53:13;;;;;;;;;;;;;;;18.54;71.29;101473.28;5010448;28;1620;-65
2020/12/20 09:55:43;;;;;;;;;;;;;;;18.48;71.24;101486.72;5009259;28;1622;-65
2020/12/20 09:58:10;;;;;;;;;;;;;;;18.45;71.16;101478.94;5010775;28;1312;-65
2020/12/20 10:00:36;;;;;;;;;;;;;;;18.45;71.21;101486.84;5010524;28;1540;-66
2020/12/20 10:03:03;;;;;;;;;;;;;;;18.44;71.10;101486.94;5010904;28;1316;-65
2020/12/20 10:05:29;;;;;;;;;;;;;;;18.45;71.14;101496.56;5010028;28;1930;-65
2020/12/20 10:07:55;;;;;;;;;;;;;;;18.61;71.18;101488.84;5009752;28;1523;-65
2020/12/20 10:10:21;;;;;;;;;;;;;;;18.66;71.19;101498.28;4992691;28;1470;-67
2020/12/20 10:12:48;;;;;;;;;;;;;;;18.77;71.00;101485.44;4992513;28;1344;-67
2020/12/20 10:15:15;;;;;;;;;;;;;;;18.82;70.40;101485.22;4990789;28;1537;-66
2020/12/20 10:17:42;;;;;;;;;;;;;;;18.59;71.06;101486.28;5008785;28;1505;-64
2020/12/20 10:20:08;;;;;;;;;;;;;;;18.64;70.58;101486.91;5008784;28;1542;-67
2020/12/20 10:22:34;;;;;;;;;;;;;;;18.56;64.99;101494.34;5010240;28;1363;-66
2020/12/20 10:25:15;;;;;;;;;;;;;;;18.44;69.62;101486.94;4993989;28;1969;-66
2020/12/20 10:27:42;;;;;;;;;;;;;;;18.45;69.40;101486.84;5009776;28;1327;-64
2020/12/20 10:30:09;;;;;;;;;;;;;;;18.40;69.40;101478.28;4976005;28;1379;-66
2020/12/20 10:32:35;;;;;;;;;;;;;;;18.37;69.66;101483.69;5009301;28;1141;-66
2020/12/20 10:35:01;;;;;;;;;;;;;;;18.37;69.80;101482.84;5009804;28;822;-66
2020/12/20 10:37:27;;;;;;;;;;;;;;;18.34;69.59;101482.97;5010290;28;1348;-66
2020/12/20 10:39:54;;;;;;;;;;;;;;;18.33;69.63;101486.56;5009814;28;1140;-65
2020/12/20 10:42:20;;;;;;;;;;;;;;;18.30;69.49;101487.50;5010230;28;1229;-67
2020/12/20 10:44:46;;;;;;;;;;;;;;;18.29;69.11;101484.97;5009606;28;1927;-66
2020/12/20 10:47:12;;;;;;;;;;;;;;;18.29;69.11;101484.97;5009986;28;1266;-66
2020/12/20 10:49:39;;;;;;;;;;;;;;;18.26;69.33;101479.81;5009883;28;1116;-67
2020/12/20 10:52:05;;;;;;;;;;;;;;;18.26;69.29;101475.41;5009647;28;1166;-68
2020/12/20 10:54:31;;;;;;;;;;;;;;;18.25;69.20;101480.72;5009331;28;936;-67
2020/12/20 10:56:59;;;;;;;;;;;;;;;18.26;69.16;101480.69;5009560;28;1335;-67
2020/12/20 10:59:30;;;;;;;;;;;;;;;18.28;69.38;101478.81;4992185;28;799;-66
2020/12/20 11:01:56;;;;;;;;;;;;;;;18.26;69.14;101480.69;5009484;28;1232;-65
2020/12/20 11:04:24;;;;;;;;;;;;;;;18.23;68.96;101474.69;5008798;28;814;-65
2020/12/20 11:06:56;;;;;;;;;;;;;;;18.23;69.14;101472.03;5009150;28;1906;-67
2020/12/20 11:09:24;;;;;;;;;;;;;;;18.23;69.27;101466.75;5009339;28;1084;-68
2020/12/20 11:12:03;;;;;;;;;;;;;;;18.24;69.87;101468.50;4991357;28;1328;-66
2020/12/20 11:14:29;;;;;;;;;;;;;;;18.23;69.90;101459.72;5009317;28;838;-67
2020/12/20 11:16:55;;;;;;;;;;;;;;;18.23;69.37;101462.34;5008962;28;1213;-66
2020/12/20 11:19:21;;;;;;;;;;;;;;;18.21;69.10;101455.44;5008981;28;1182;-65
2020/12/20 11:21:48;;;;;;;;;;;;;;;18.22;69.01;101451.84;5008991;28;1224;-65
2020/12/20 11:24:15;;;;;;;;;;;;;;;18.23;68.78;101453.56;5009131;28;771;-66
2020/12/20 11:26:43;;;;;;;;;;;;;;;18.21;68.80;101451.00;4991506;28;1930;-66
2020/12/20 11:29:09;;;;;;;;;;;;;;;18.22;68.84;101455.34;4990975;28;1616;-66
2020/12/20 11:31:36;;;;;;;;;;;;;;;18.20;68.51;101456.34;4974908;28;1355;-66
2020/12/20 11:34:02;;;;;;;;;;;;;;;18.19;68.60;101447.56;4991166;28;1343;-65
2020/12/20 11:36:29;;;;;;;;;;;;;;;18.17;68.28;101454.72;5008744;28;1371;-65
2020/12/20 11:38:55;;;;;;;;;;;;;;;18.19;68.49;101455.50;5008639;28;790;-65
2020/12/20 11:41:22;;;;;;;;;;;;;;;18.18;68.69;101466.13;5008683;28;1327;-66
2020/12/20 11:43:48;;;;;;;;;;;;;;;18.17;68.45;101477.56;5008307;28;1158;-67
2020/12/20 11:46:15;;;;;;;;;;;;;;;18.16;68.38;101481.13;4990826;28;1984;-66
2020/12/20 11:48:42;;;;;;;;;;;;;;;18.17;68.02;101480.22;4990783;28;1145;-65
2020/12/20 11:51:09;;;;;;;;;;;;;;;18.16;68.19;101479.34;5008750;28;1284;-65
2020/12/20 11:53:35;;;;;;;;;;;;;;;18.14;68.27;101475.06;5009176;28;1263;-65
2020/12/20 11:56:13;;;;;;;;;;;;;;;18.12;68.36;101475.13;4990984;28;1308;-66
2020/12/20 11:58:40;;;;;;;;;;;;;;;18.14;68.31;101478.56;5009171;28;1228;-66
2020/12/20 12:01:06;;;;;;;;;;;;;;;18.13;68.54;101475.97;5008736;28;1234;-66
2020/12/20 12:03:33;;;;;;;;;;;;;;;18.12;68.57;101469.03;5009265;28;1176;-66
2020/12/20 12:05:59;;;;;;;;;;;;;;;18.14;68.10;101475.94;5008277;28;1972;-65
2020/12/20 12:08:26;;;;;;;;;;;;;;;18.13;68.21;101468.94;5008831;28;1004;-64
2020/12/20 12:10:53;;;;;;;;;;;;;;;18.16;67.91;101467.94;4990738;28;1260;-64
2020/12/20 12:13:19;;;;;;;;;;;;;;;18.12;68.11;101471.66;5008981;28;1129;-64
2020/12/20 12:15:45;;;;;;;;;;;;;;;18.11;68.02;101462.03;4993052;28;925;-66
2020/12/20 12:18:12;;;;;;;;;;;;;;;18.11;68.15;101462.03;4978459;28;1454;-66
2020/12/20 12:20:39;;;;;;;;;;;;;;;18.11;68.20;101462.03;4994610;28;1288;-65
2020/12/20 12:23:06;;;;;;;;;;;;;;;18.10;68.36;101469.06;4994385;28;1548;-66
2020/12/20 12:25:33;;;;;;;;;;;;;;;18.09;68.06;101469.16;4994346;28;1906;-66
2020/12/20 12:27:59;;;;;;;;;;;;;;;18.11;67.88;101467.28;5011812;28;1288;-66
2020/12/20 12:30:26;;;;;;;;;;;;;;;18.11;68.15;101462.03;5011792;28;1142;-66
2020/12/20 12:32:53;;;;;;;;;;;;;;;18.08;67.85;101459.50;5012589;28;1221;-65
2020/12/20 12:35:20;;;;;;;;;;;;;;;18.08;68.03;101454.25;5012092;28;1091;-65
2020/12/20 12:37:46;;;;;;;;;;;;;;;18.08;67.94;101459.50;4994236;28;1199;-65
2020/12/20 12:40:13;;;;;;;;;;;;;;;18.12;68.05;101458.47;4994662;28;829;-65
2020/12/20 12:42:39;;;;;;;;;;;;;;;18.08;68.15;101462.16;5012280;28;1241;-65
2020/12/20 12:45:06;;;;;;;;;;;;;;;18.10;67.63;101455.03;5011968;28;1906;-65
2020/12/20 12:47:32;;;;;;;;;;;;;;;18.06;68.05;101464.84;5012204;28;1339;-65
2020/12/20 12:49:58;;;;;;;;;;;;;;;18.07;68.22;101463.94;5012103;28;980;-66
2020/12/20 12:52:25;;;;;;;;;;;;;;;18.08;68.32;101462.16;5011955;28;1319;-65
2020/12/20 12:54:51;;;;;;;;;;;;;;;18.07;68.07;101468.34;5011723;28;815;-66
2020/12/20 12:57:18;;;;;;;;;;;;;;;18.05;68.37;101467.56;5011565;28;1595;-66
2020/12/20 12:59:44;;;;;;;;;;;;;;;18.04;68.38;101464.06;4994133;28;1080;-65
2020/12/20 13:02:10;;;;;;;;;;;;;;;18.03;68.51;101462.34;5011661;28;1192;-66
2020/12/20 13:04:38;;;;;;;;;;;;;;;18.02;68.51;101466.75;5011727;28;1040;-63
2020/12/20 13:07:04;;;;;;;;;;;;;;;18.03;68.24;101457.91;4993145;28;1898;-66